createdAt,value
2018-04-01T00:01:56.383Z,35.10
2018-04-01T00:04:23.489Z,40.27
2018-04-01T00:06:50.518Z,38.37
2018-04-01T00:09:18.334Z,36.67
2018-04-01T00:11:45.374Z,37.77
2018-04-01T00:14:12.438Z,37.73
2018-04-01T00:16:39.473Z,39.27
2018-04-01T00:19:06.537Z,39.47
2018-04-01T00:21:33.566Z,40.97
2018-04-01T00:24:00.601Z,34.57
2018-04-01T00:26:27.658Z,37.10
2018-04-01T00:28:54.694Z,36.87
2018-04-01T00:31:21.758Z,39.27
2018-04-01T00:33:48.792Z,40.43
2018-04-01T00:36:15.851Z,37.03
2018-04-01T00:38:42.874Z,41.60
2018-04-01T00:41:10.697Z,38.07
2018-04-01T00:43:37.734Z,38.40
2018-04-01T00:46:04.793Z,43.03
2018-04-01T00:48:31.821Z,39.30
2018-04-01T00:50:58.881Z,39.13
2018-04-01T00:53:25.918Z,41.60
2018-04-01T00:55:52.969Z,41.07
2018-04-01T00:58:20.001Z,44.93
2018-04-01T01:00:47.057Z,42.07
2018-04-01T01:03:14.102Z,39.73
2018-04-01T01:05:41.169Z,39.37
2018-04-01T01:08:08.198Z,42.00
2018-04-01T01:10:35.284Z,40.83
2018-04-01T01:13:02.312Z,36.57
2018-04-01T01:15:29.369Z,35.67
2018-04-01T01:17:56.405Z,36.80
2018-04-01T01:20:23.446Z,37.63
2018-04-01T01:22:50.510Z,38.70
2018-04-01T01:25:17.588Z,35.30
2018-04-01T01:27:44.746Z,37.90
2018-04-01T01:30:12.546Z,37.10
2018-04-01T01:32:39.610Z,39.90
2018-04-01T01:35:06.642Z,37.93
2018-04-01T01:37:33.702Z,37.70
2018-04-01T01:40:00.738Z,38.63
2018-04-01T01:42:27.799Z,37.27
2018-04-01T01:44:54.839Z,36.83
2018-04-01T01:47:21.901Z,35.93
2018-04-01T01:49:48.929Z,36.20
2018-04-01T01:52:15.989Z,36.60
2018-04-01T01:54:43.021Z,41.10
2018-04-01T01:57:10.080Z,39.63
2018-04-01T01:59:37.106Z,40.90
2018-04-01T02:02:04.934Z,40.67
2018-04-01T02:04:31.965Z,40.07
2018-04-01T02:06:59.031Z,44.23
2018-04-01T02:09:26.061Z,46.63
2018-04-01T02:11:53.117Z,45.20
2018-04-01T02:14:20.151Z,46.37
2018-04-01T02:16:47.221Z,44.77
2018-04-01T02:19:14.254Z,53.53
2018-04-01T02:21:41.288Z,46.47
2018-04-01T02:24:08.350Z,52.03
2018-04-01T02:26:35.377Z,49.90
2018-04-01T02:29:02.438Z,46.30
2018-04-01T02:31:29.528Z,46.03
2018-04-01T02:33:56.546Z,46.30
2018-04-01T02:36:23.579Z,45.03
2018-04-01T02:38:50.638Z,50.67
2018-04-01T02:41:17.667Z,52.00
2018-04-01T02:43:44.737Z,49.23
2018-04-01T02:46:11.766Z,47.13
2018-04-01T02:48:38.817Z,45.93
2018-04-01T02:51:05.841Z,53.50
2018-04-01T02:53:33.723Z,56.20
2018-04-01T02:56:00.722Z,51.23
2018-04-01T02:58:27.772Z,54.13
2018-04-01T03:00:54.826Z,58.53
2018-04-01T03:03:21.886Z,54.33
2018-04-01T03:05:48.918Z,54.73
2018-04-01T03:08:15.947Z,57.57
2018-04-01T03:10:43.010Z,52.30
2018-04-01T03:13:10.038Z,49.30
2018-04-01T03:15:37.098Z,50.83
2018-04-01T03:18:04.134Z,43.17
2018-04-01T03:20:31.201Z,44.67
2018-04-01T03:22:58.237Z,44.07
2018-04-01T03:25:25.310Z,45.73
2018-04-01T03:27:52.593Z,45.70
2018-04-01T03:30:19.658Z,44.37
2018-04-01T03:32:46.702Z,48.13
2018-04-01T03:35:14.530Z,43.57
2018-04-01T03:37:41.566Z,44.00
2018-04-01T03:40:08.627Z,47.73
2018-04-01T03:42:35.674Z,47.27
2018-04-01T03:45:02.731Z,46.83
2018-04-01T03:47:29.766Z,49.33
2018-04-01T03:49:56.837Z,48.80
2018-04-01T03:52:23.866Z,50.73
2018-04-01T03:54:50.929Z,48.73
2018-04-01T03:57:17.962Z,47.07
2018-04-01T03:59:45.025Z,41.57
2018-04-01T04:02:12.050Z,44.33
2018-04-01T04:04:39.113Z,44.73
2018-04-01T04:07:06.141Z,42.93
2018-04-01T04:09:33.218Z,40.03
2018-04-01T04:12:00.246Z,34.20
2018-04-01T04:14:27.287Z,38.73
2018-04-01T04:16:54.348Z,33.93
2018-04-01T04:19:21.377Z,35.80
2018-04-01T04:21:48.433Z,34.23
2018-04-01T04:24:15.465Z,33.13
2018-04-01T04:26:42.513Z,31.47
2018-04-01T04:29:09.550Z,30.77
2018-04-01T04:31:36.617Z,30.10
2018-04-01T04:34:03.641Z,32.53
2018-04-01T04:36:30.744Z,29.10
2018-04-01T04:38:57.742Z,32.93
2018-04-01T04:41:24.800Z,29.57
2018-04-01T04:43:51.826Z,32.17
2018-04-01T04:46:19.660Z,31.97
2018-04-01T04:48:46.684Z,32.03
2018-04-01T04:51:13.737Z,31.27
2018-04-01T04:53:40.769Z,30.77
2018-04-01T04:56:07.837Z,30.37
2018-04-01T04:58:34.878Z,27.97
2018-04-01T05:01:01.934Z,30.87
2018-04-01T05:03:28.965Z,30.30
2018-04-01T05:05:56.033Z,29.60
2018-04-01T05:08:23.073Z,31.30
2018-04-01T05:10:50.107Z,28.07
2018-04-01T05:13:17.162Z,29.83
2018-04-01T05:15:44.210Z,29.10
2018-04-01T05:18:11.266Z,31.50
2018-04-01T05:20:38.299Z,33.33
2018-04-01T05:23:05.357Z,30.93
2018-04-01T05:25:32.385Z,29.77
2018-04-01T05:27:59.441Z,27.30
2018-04-01T05:30:26.473Z,28.60
2018-04-01T05:32:53.533Z,29.87
2018-04-01T05:35:20.573Z,32.70
2018-04-01T05:37:47.641Z,31.60
2018-04-01T05:40:14.667Z,30.40
2018-04-01T05:42:41.718Z,31.63
2018-04-01T05:45:08.748Z,31.07
2018-04-01T05:47:36.581Z,30.00
2018-04-01T05:50:03.621Z,29.53
2018-04-01T05:52:30.677Z,27.37
2018-04-01T05:54:57.706Z,30.03
2018-04-01T05:57:24.762Z,30.07
2018-04-01T05:59:51.791Z,21.93
2018-04-01T06:02:18.861Z,25.03
2018-04-01T06:04:45.894Z,19.07
2018-04-01T06:07:12.950Z,18.73
2018-04-01T06:09:39.981Z,17.60
2018-04-01T06:12:07.009Z,15.67
2018-04-01T06:14:34.838Z,15.93
2018-04-01T06:17:01.870Z,14.33
2018-04-01T06:19:28.932Z,14.83
2018-04-01T06:21:55.962Z,15.50
2018-04-01T06:24:23.026Z,15.87
2018-04-01T06:26:50.074Z,15.40
2018-04-01T06:29:17.132Z,15.43
2018-04-01T06:31:44.167Z,14.40
2018-04-01T06:34:11.232Z,14.77
2018-04-01T06:36:38.261Z,16.77
2018-04-01T06:39:05.317Z,15.87
2018-04-01T06:41:32.352Z,16.47
2018-04-01T06:43:59.411Z,18.43
2018-04-01T06:46:26.458Z,15.97
2018-04-01T06:48:53.516Z,14.30
2018-04-01T06:51:20.554Z,15.87
2018-04-01T06:53:47.618Z,13.90
2018-04-01T06:56:14.654Z,14.77
2018-04-01T06:58:41.729Z,15.77
2018-04-01T07:01:09.526Z,14.23
2018-04-01T07:03:36.585Z,15.97
2018-04-01T07:06:03.620Z,16.93
2018-04-01T07:08:30.670Z,12.90
2018-04-01T07:10:57.705Z,13.20
2018-04-01T07:13:25.497Z,14.07
2018-04-01T07:15:52.554Z,17.73
2018-04-01T07:18:19.581Z,14.50
2018-04-01T07:20:46.639Z,12.37
2018-04-01T07:23:13.661Z,13.10
2018-04-01T07:25:41.483Z,12.93
2018-04-01T07:28:08.510Z,27.00
2018-04-01T07:30:35.566Z,15.97
2018-04-01T07:33:02.598Z,13.07
2018-04-01T07:35:29.659Z,23.53
2018-04-01T07:37:56.707Z,19.30
2018-04-01T07:40:23.766Z,15.30
2018-04-01T07:42:50.811Z,15.10
2018-04-01T07:45:17.871Z,16.20
2018-04-01T07:47:44.897Z,17.70
2018-04-01T07:50:11.965Z,14.10
2018-04-01T07:52:38.997Z,15.90
2018-04-01T07:55:06.059Z,17.73
2018-04-01T07:57:33.081Z,20.17
2018-04-01T08:00:00.150Z,19.13
2018-04-01T08:02:27.186Z,17.87
2018-04-01T08:04:54.241Z,19.23
2018-04-01T08:07:21.269Z,15.83
2018-04-01T08:09:48.338Z,18.00
2018-04-01T08:12:15.371Z,16.57
2018-04-01T08:14:42.426Z,16.10
2018-04-01T08:17:09.485Z,18.17
2018-04-01T08:19:36.513Z,21.37
2018-04-01T08:22:03.566Z,19.30
2018-04-01T08:24:30.601Z,21.93
2018-04-01T08:26:57.652Z,22.30
2018-04-01T08:29:24.688Z,25.83
2018-04-01T08:31:52.521Z,26.57
2018-04-01T08:34:19.567Z,26.23
2018-04-01T08:36:46.642Z,27.53
2018-04-01T08:39:14.446Z,24.03
2018-04-01T08:41:41.499Z,25.87
2018-04-01T08:44:08.558Z,29.00
2018-04-01T08:46:35.613Z,29.63
2018-04-01T08:49:02.647Z,26.50
2018-04-01T08:51:29.706Z,23.43
2018-04-01T08:53:56.742Z,22.17
2018-04-01T08:56:23.801Z,20.77
2018-04-01T08:58:50.835Z,19.47
2018-04-01T09:01:17.906Z,22.90
2018-04-01T09:03:44.943Z,20.60
2018-04-01T09:06:12.004Z,18.13
2018-04-01T09:08:39.030Z,21.73
2018-04-01T09:11:06.105Z,17.20
2018-04-01T09:13:33.143Z,15.53
2018-04-01T09:16:00.234Z,16.00
2018-04-01T09:18:28.039Z,15.47
2018-04-01T09:20:55.074Z,15.83
2018-04-01T09:23:22.129Z,14.90
2018-04-01T09:25:49.177Z,20.10
2018-04-01T09:28:16.233Z,20.87
2018-04-01T09:30:43.268Z,20.00
2018-04-01T09:33:10.324Z,22.57
2018-04-01T09:35:37.353Z,21.33
2018-04-01T09:38:05.182Z,20.50
2018-04-01T09:40:32.217Z,20.50
2018-04-01T09:43:00.082Z,16.00
2018-04-01T09:45:27.121Z,17.57
2018-04-01T09:47:54.199Z,16.73
2018-04-01T09:50:21.239Z,14.37
2018-04-01T09:52:48.314Z,14.20
2018-04-01T09:55:16.128Z,14.30
2018-04-01T09:57:43.210Z,15.30
2018-04-01T10:00:10.257Z,14.10
2018-04-01T10:02:38.371Z,14.37
2018-04-01T10:05:12.723Z,15.73
2018-04-01T10:07:40.279Z,12.73
2018-04-01T10:10:07.826Z,14.20
2018-04-01T10:12:35.362Z,14.00
2018-04-01T10:15:03.703Z,14.10
2018-04-01T10:17:31.235Z,14.27
2018-04-01T10:19:58.814Z,13.97
2018-04-01T10:22:26.346Z,12.27
2018-04-01T10:24:53.905Z,11.83
2018-04-01T10:27:21.434Z,13.20
2018-04-01T10:29:49.758Z,12.07
2018-04-01T10:32:17.286Z,11.17
2018-04-01T10:34:44.855Z,12.37
2018-04-01T10:37:12.386Z,10.87
2018-04-01T10:39:40.723Z,11.20
2018-04-01T10:42:08.258Z,11.53
2018-04-01T10:44:35.823Z,11.93
2018-04-01T10:47:03.356Z,10.40
2018-04-01T10:49:30.941Z,10.20
2018-04-01T10:51:58.470Z,10.77
2018-04-01T10:54:25.569Z,10.43
2018-04-01T10:56:52.617Z,12.27
2018-04-01T10:59:19.706Z,11.10
2018-04-01T11:01:46.745Z,11.47
2018-04-01T11:04:13.788Z,12.73
2018-04-01T11:06:40.886Z,15.13
2018-04-01T11:09:07.921Z,17.47
2018-04-01T11:11:35.751Z,18.20
2018-04-01T11:14:02.790Z,20.60
2018-04-01T11:16:29.848Z,19.50
2018-04-01T11:18:56.885Z,23.87
2018-04-01T11:21:23.944Z,21.90
2018-04-01T11:23:50.973Z,21.07
2018-04-01T11:26:18.033Z,19.40
2018-04-01T11:28:45.836Z,21.03
2018-04-01T11:31:12.938Z,24.30
2018-04-01T11:33:39.945Z,17.37
2018-04-01T11:36:07.770Z,20.10
2018-04-01T11:38:34.806Z,17.40
2018-04-01T11:41:01.871Z,19.73
2018-04-01T11:43:28.901Z,18.97
2018-04-01T11:45:55.957Z,15.73
2018-04-01T11:48:23.003Z,16.87
2018-04-01T11:50:50.063Z,17.60
2018-04-01T11:53:17.097Z,15.93
2018-04-01T11:55:44.156Z,18.23
2018-04-01T11:58:11.186Z,16.30
2018-04-01T12:00:38.258Z,20.20
2018-04-01T12:03:05.302Z,15.63
2018-04-01T12:05:32.361Z,17.47
2018-04-01T12:07:59.470Z,19.23
2018-04-01T12:10:26.497Z,16.70
2018-04-01T12:12:54.321Z,17.53
2018-04-01T12:15:21.354Z,17.20
2018-04-01T12:17:48.414Z,15.70
2018-04-01T12:20:15.448Z,15.53
2018-04-01T12:22:42.510Z,13.00
2018-04-01T12:25:09.560Z,13.40
2018-04-01T12:27:36.618Z,15.20
2018-04-01T12:30:03.650Z,14.93
2018-04-01T12:32:30.713Z,16.43
2018-04-01T12:34:57.747Z,13.77
2018-04-01T12:37:24.801Z,15.67
2018-04-01T12:39:51.827Z,12.47
2018-04-01T12:42:18.892Z,13.10
2018-04-01T12:44:45.913Z,11.83
2018-04-01T12:47:12.971Z,12.07
2018-04-01T12:49:40.002Z,11.70
2018-04-01T12:52:07.062Z,10.93
2018-04-01T12:54:34.095Z,11.77
2018-04-01T12:57:01.162Z,15.20
2018-04-01T12:59:28.198Z,13.13
2018-04-01T13:01:55.253Z,13.40
2018-04-01T13:04:22.277Z,14.03
2018-04-01T13:06:50.095Z,15.73
2018-04-01T13:09:17.166Z,16.33
2018-04-01T13:11:44.190Z,13.80
2018-04-01T13:14:11.245Z,15.00
2018-04-01T13:16:38.275Z,14.80
2018-04-01T13:19:05.333Z,15.80
2018-04-01T13:21:32.370Z,15.03
2018-04-01T13:23:59.433Z,17.30
2018-04-01T13:26:27.231Z,16.13
2018-04-01T13:28:54.288Z,16.67
2018-04-01T13:31:22.087Z,17.83
2018-04-01T13:33:49.152Z,20.60
2018-04-01T13:36:16.953Z,31.83
2018-04-01T13:38:44.013Z,18.93
2018-04-01T13:41:11.054Z,17.70
2018-04-01T13:43:38.119Z,20.37
2018-04-01T13:46:05.913Z,17.27
2018-04-01T13:48:32.979Z,17.10
2018-04-01T13:51:00.005Z,13.53
2018-04-01T13:53:27.064Z,13.80
2018-04-01T13:55:54.091Z,13.20
2018-04-01T13:58:21.146Z,12.77
2018-04-01T14:00:48.184Z,12.17
2018-04-01T14:03:15.249Z,14.40
2018-04-01T14:05:42.289Z,17.97
2018-04-01T14:08:10.129Z,12.63
2018-04-01T14:10:37.166Z,12.40
2018-04-01T14:13:04.242Z,12.40
2018-04-01T14:15:32.070Z,12.83
2018-04-01T14:17:59.090Z,12.87
2018-04-01T14:20:26.150Z,11.90
2018-04-01T14:22:53.183Z,13.83
2018-04-01T14:25:20.237Z,13.53
2018-04-01T14:27:47.295Z,14.57
2018-04-01T14:30:14.384Z,12.00
2018-04-01T14:32:41.407Z,14.00
2018-04-01T14:35:08.482Z,13.60
2018-04-01T14:37:35.540Z,14.00
2018-04-01T14:40:03.381Z,14.93
2018-04-01T14:42:30.441Z,12.60
2018-04-01T14:44:57.536Z,11.83
2018-04-01T14:47:24.646Z,15.60
2018-04-01T14:49:51.713Z,12.37
2018-04-01T14:52:19.504Z,12.67
2018-04-01T14:54:46.549Z,13.10
2018-04-01T14:57:13.578Z,11.67
2018-04-01T14:59:41.405Z,12.67
2018-04-01T15:02:08.442Z,12.20
2018-04-01T15:04:35.508Z,13.87
2018-04-01T15:07:02.539Z,12.93
2018-04-01T15:09:29.624Z,12.40
2018-04-01T15:11:56.660Z,15.17
2018-04-01T15:14:23.724Z,12.20
2018-04-01T15:16:50.785Z,14.70
2018-04-01T15:19:18.576Z,12.83
2018-04-01T15:21:45.629Z,13.27
2018-04-01T15:24:12.661Z,12.97
2018-04-01T15:26:40.487Z,13.77
2018-04-01T15:29:07.535Z,15.40
2018-04-01T15:31:34.603Z,12.97
2018-04-01T15:34:01.633Z,14.37
2018-04-01T15:36:28.693Z,13.53
2018-04-01T15:38:55.727Z,12.30
2018-04-01T15:41:23.631Z,12.17
2018-04-01T15:43:51.430Z,12.00
2018-04-01T15:46:18.491Z,14.23
2018-04-01T15:48:45.567Z,13.40
2018-04-01T15:51:12.640Z,12.60
2018-04-01T15:53:40.471Z,14.10
2018-04-01T15:56:07.566Z,16.17
2018-04-01T15:58:35.378Z,13.07
2018-04-01T16:01:02.473Z,13.60
2018-04-01T16:03:29.528Z,13.43
2018-04-01T16:05:57.357Z,12.43
2018-04-01T16:08:24.395Z,12.87
2018-04-01T16:10:51.468Z,14.97
2018-04-01T16:13:18.531Z,13.57
2018-04-01T16:15:45.607Z,13.33
2018-04-01T16:18:12.671Z,14.40
2018-04-01T16:20:39.713Z,13.93
2018-04-01T16:23:06.773Z,14.30
2018-04-01T16:25:33.819Z,15.90
2018-04-01T16:28:01.652Z,13.80
2018-04-01T16:30:28.705Z,13.83
2018-04-01T16:32:56.525Z,14.60
2018-04-01T16:35:23.569Z,13.73
2018-04-01T16:37:50.642Z,15.77
2018-04-01T16:40:17.678Z,14.80
2018-04-01T16:42:44.746Z,16.57
2018-04-01T16:45:11.822Z,14.77
2018-04-01T16:47:39.673Z,14.07
2018-04-01T16:50:06.722Z,15.20
2018-04-01T16:52:34.568Z,14.80
2018-04-01T16:55:01.616Z,15.80
2018-04-01T16:57:28.691Z,17.77
2018-04-01T16:59:56.501Z,17.60
2018-04-01T17:02:23.583Z,16.37
2018-04-01T17:04:50.653Z,15.33
2018-04-01T17:07:18.557Z,15.77
2018-04-01T17:09:45.603Z,18.20
2018-04-01T17:12:12.674Z,20.57
2018-04-01T17:14:39.725Z,20.13
2018-04-01T17:17:06.821Z,33.57
2018-04-01T17:19:34.652Z,24.50
2018-04-01T17:22:01.701Z,17.00
2018-04-01T17:24:28.778Z,18.30
2018-04-01T17:26:56.647Z,18.17
2018-04-01T17:29:23.726Z,16.97
2018-04-01T17:31:50.780Z,18.80
2018-04-01T17:34:17.863Z,16.73
2018-04-01T17:36:44.910Z,18.87
2018-04-01T17:39:12.002Z,22.50
2018-04-01T17:41:39.833Z,20.20
2018-04-01T17:44:06.969Z,18.60
2018-04-01T17:46:34.086Z,20.40
2018-04-01T17:49:01.127Z,23.13
2018-04-01T17:51:28.951Z,25.90
2018-04-01T17:53:56.065Z,25.93
2018-04-01T17:56:23.123Z,29.10
2018-04-01T17:58:50.191Z,23.33
2018-04-01T18:01:17.221Z,22.83
2018-04-01T18:03:44.358Z,22.17
2018-04-01T18:06:12.114Z,22.50
2018-04-01T18:08:39.182Z,24.40
2018-04-01T18:11:06.209Z,19.50
2018-04-01T18:13:33.268Z,20.17
2018-04-01T18:16:00.301Z,20.97
2018-04-01T18:18:28.128Z,19.73
2018-04-01T18:20:55.162Z,23.27
2018-04-01T18:23:22.205Z,23.03
2018-04-01T18:25:49.268Z,20.67
2018-04-01T18:28:16.308Z,24.63
2018-04-01T18:30:43.364Z,25.43
2018-04-01T18:33:10.402Z,28.97
2018-04-01T18:35:37.457Z,32.93
2018-04-01T18:38:04.481Z,33.73
2018-04-01T18:40:31.533Z,29.97
2018-04-01T18:42:58.560Z,24.73
2018-04-01T18:45:25.619Z,23.87
2018-04-01T18:47:52.645Z,22.27
2018-04-01T18:50:20.511Z,22.87
2018-04-01T18:52:48.308Z,24.40
2018-04-01T18:55:15.365Z,21.43
2018-04-01T18:57:42.408Z,23.60
2018-04-01T19:00:10.235Z,26.87
2018-04-01T19:02:38.371Z,24.97
2018-04-01T19:05:05.425Z,30.50
2018-04-01T19:07:32.470Z,28.13
2018-04-01T19:09:59.534Z,27.23
2018-04-01T19:12:26.567Z,31.27
2018-04-01T19:14:53.625Z,38.70
2018-04-01T19:17:21.206Z,36.67
2018-04-01T19:19:48.755Z,38.93
2018-04-01T19:22:16.278Z,50.13
2018-04-01T19:24:43.832Z,48.50
2018-04-01T19:27:11.353Z,45.43
2018-04-01T19:29:39.633Z,45.40
2018-04-01T19:32:07.951Z,40.57
2018-04-01T19:34:35.478Z,42.17
2018-04-01T19:37:03.795Z,37.00
2018-04-01T19:39:31.341Z,34.03
2018-04-01T19:41:58.894Z,23.83
2018-04-01T19:44:26.417Z,21.73
2018-04-01T19:46:53.971Z,20.23
2018-04-01T19:49:21.499Z,19.80
2018-04-01T19:51:49.058Z,20.80
2018-04-01T19:54:16.587Z,20.40
2018-04-01T19:56:44.142Z,17.73
2018-04-01T19:59:11.688Z,15.83
2018-04-01T20:01:40.009Z,19.20
2018-04-01T20:04:07.537Z,21.53
2018-04-01T20:06:35.855Z,23.50
2018-04-01T20:09:03.383Z,30.17
2018-04-01T20:11:30.942Z,30.77
2018-04-01T20:13:58.468Z,40.57
2018-04-01T20:16:26.021Z,43.67
2018-04-01T20:18:53.550Z,42.57
2018-04-01T20:21:21.108Z,44.67
2018-04-01T20:23:48.642Z,42.77
2018-04-01T20:26:16.197Z,39.90
2018-04-01T20:28:44.487Z,43.80
2018-04-01T20:31:12.014Z,41.30
2018-04-01T20:33:39.574Z,37.30
2018-04-01T20:36:07.107Z,33.43
2018-04-01T20:38:34.677Z,40.00
2018-04-01T20:41:02.203Z,44.63
2018-04-01T20:43:29.750Z,44.70
2018-04-01T20:45:57.274Z,42.17
2018-04-01T20:48:24.836Z,46.30
2018-04-01T20:50:52.363Z,42.50
2018-04-01T20:53:19.920Z,41.87
2018-04-01T20:55:47.442Z,44.27
2018-04-01T20:58:14.997Z,47.77
2018-04-01T21:00:43.287Z,44.00
2018-04-01T21:03:10.843Z,43.77
2018-04-01T21:05:38.382Z,45.80
2018-04-01T21:08:05.961Z,42.20
2018-04-01T21:10:33.476Z,48.67
2018-04-01T21:13:01.035Z,44.87
2018-04-01T21:15:28.571Z,46.30
2018-04-01T21:17:56.141Z,52.10
2018-04-01T21:20:23.665Z,52.87
2018-04-01T21:22:51.187Z,52.60
2018-04-01T21:25:18.737Z,51.17
2018-04-01T21:27:46.261Z,54.60
2018-04-01T21:30:13.829Z,59.63
2018-04-01T21:32:41.366Z,52.60
2018-04-01T21:35:08.927Z,55.47
2018-04-01T21:37:36.448Z,59.67
2018-04-01T21:40:04.001Z,61.00
2018-04-01T21:42:31.533Z,58.43
2018-04-01T21:44:59.094Z,57.27
2018-04-01T21:47:26.629Z,56.87
2018-04-01T21:49:54.190Z,53.80
2018-04-01T21:52:21.722Z,60.37
2018-04-01T21:54:49.273Z,58.43
2018-04-01T21:57:16.820Z,60.13
2018-04-01T21:59:44.366Z,61.37
2018-04-01T22:02:11.886Z,56.47
2018-04-01T22:04:40.199Z,58.70
2018-04-01T22:07:07.725Z,52.43
2018-04-01T22:09:36.048Z,56.27
2018-04-01T22:12:03.571Z,55.73
2018-04-01T22:14:31.123Z,51.33
2018-04-01T22:16:58.652Z,53.30
2018-04-01T22:19:26.204Z,50.13
2018-04-01T22:21:53.726Z,50.23
2018-04-01T22:24:21.286Z,54.73
2018-04-01T22:26:48.812Z,51.80
2018-04-01T22:29:17.114Z,50.17
2018-04-01T22:31:44.681Z,51.80
2018-04-01T22:34:12.199Z,51.13
2018-04-01T22:36:39.752Z,52.40
2018-04-01T22:39:07.288Z,50.07
2018-04-01T22:41:34.850Z,50.53
2018-04-01T22:44:02.375Z,48.03
2018-04-01T22:46:29.990Z,53.77
2018-04-01T22:48:57.477Z,54.30
2018-04-01T22:51:25.806Z,55.03
2018-04-01T22:53:53.330Z,53.93
2018-04-01T22:56:20.881Z,54.37
2018-04-01T22:58:48.408Z,53.53
2018-04-01T23:01:15.952Z,50.50
2018-04-01T23:03:43.474Z,47.27
2018-04-01T23:06:11.021Z,50.70
2018-04-01T23:08:38.542Z,52.13
2018-04-01T23:11:06.098Z,54.33
2018-04-01T23:13:33.620Z,53.93
2018-04-01T23:16:01.177Z,55.77
2018-04-01T23:18:28.697Z,54.77
2018-04-01T23:20:57.014Z,55.20
2018-04-01T23:23:24.545Z,52.73
2018-04-01T23:25:52.923Z,55.47
2018-04-01T23:28:21.268Z,54.93
2018-04-01T23:30:48.794Z,54.20
2018-04-01T23:33:16.401Z,58.90
2018-04-01T23:35:43.983Z,54.33
2018-04-01T23:38:12.301Z,48.67
2018-04-01T23:40:39.818Z,53.37
2018-04-01T23:43:08.181Z,56.10
2018-04-01T23:45:35.700Z,54.50
2018-04-01T23:48:03.258Z,54.47
2018-04-01T23:50:30.785Z,56.33
2018-04-01T23:52:59.112Z,55.27
2018-04-01T23:55:26.643Z,53.13
2018-04-01T23:57:54.193Z,56.13
